createdAt,value
2019-01-18T00:01:32.095Z,2.30
2019-01-18T00:04:02.207Z,2.30
2019-01-18T00:06:35.010Z,2.00
2019-01-18T00:09:08.434Z,2.40
2019-01-18T00:11:46.238Z,2.50
2019-01-18T00:14:20.029Z,2.50
2019-01-18T00:16:56.420Z,2.40
2019-01-18T00:19:31.524Z,2.40
2019-01-18T00:22:07.851Z,2.30
2019-01-18T00:24:39.800Z,2.30
2019-01-18T00:27:10.363Z,2.40
2019-01-18T00:29:44.750Z,2.40
2019-01-18T00:32:16.295Z,2.30
2019-01-18T00:34:51.813Z,2.20
2019-01-18T00:37:22.581Z,2.20
2019-01-18T00:39:52.700Z,2.20
2019-01-18T00:42:30.395Z,2.20
2019-01-18T00:45:03.735Z,2.10
2019-01-18T00:47:35.429Z,2.10
2019-01-18T00:50:09.299Z,2.00
2019-01-18T00:52:39.554Z,2.00
2019-01-18T00:55:09.801Z,2.10
2019-01-18T00:57:42.652Z,2.00
2019-01-18T01:00:15.584Z,2.00
2019-01-18T01:02:45.828Z,2.00
2019-01-18T01:05:18.806Z,2.00
2019-01-18T01:07:49.350Z,2.10
2019-01-18T01:10:23.671Z,2.20
2019-01-18T01:12:57.678Z,2.20
2019-01-18T01:15:29.903Z,2.20
2019-01-18T01:17:59.811Z,2.20
2019-01-18T01:20:33.722Z,2.10
2019-01-18T01:23:04.479Z,2.10
2019-01-18T01:25:35.191Z,2.10
2019-01-18T01:28:07.285Z,2.10
2019-01-18T01:30:39.281Z,2.10
2019-01-18T01:33:09.575Z,2.10
2019-01-18T01:35:40.304Z,2.00
2019-01-18T01:38:11.447Z,2.10
2019-01-18T01:40:41.829Z,2.00
2019-01-18T01:43:12.023Z,2.00
2019-01-18T01:45:43.097Z,2.00
2019-01-18T01:48:13.478Z,1.90
2019-01-18T01:50:43.779Z,1.90
2019-01-18T01:53:13.577Z,1.90
2019-01-18T01:55:43.469Z,1.80
2019-01-18T01:58:13.411Z,1.70
2019-01-18T02:00:43.442Z,1.60
2019-01-18T02:03:13.439Z,1.60
2019-01-18T02:05:43.809Z,1.70
2019-01-18T02:08:14.693Z,1.70
2019-01-18T02:10:45.136Z,1.70
2019-01-18T02:13:17.693Z,1.70
2019-01-18T02:15:48.274Z,1.70
2019-01-18T02:18:19.813Z,1.70
2019-01-18T02:20:50.110Z,1.70
2019-01-18T02:23:21.413Z,1.70
2019-01-18T02:25:51.359Z,1.70
2019-01-18T02:28:21.219Z,1.70
2019-01-18T02:30:51.406Z,1.60
2019-01-18T02:33:21.157Z,1.60
2019-01-18T02:35:51.032Z,1.60
2019-01-18T02:38:20.885Z,1.60
2019-01-18T02:40:50.765Z,1.50
2019-01-18T02:43:20.578Z,1.50
2019-01-18T02:45:50.449Z,1.50
2019-01-18T02:48:20.208Z,1.50
2019-01-18T02:50:50.817Z,1.50
2019-01-18T02:53:20.597Z,1.50
2019-01-18T02:55:50.625Z,1.50
2019-01-18T02:58:20.365Z,1.50
2019-01-18T03:00:54.924Z,1.50
2019-01-18T03:03:25.315Z,1.50
2019-01-18T03:05:55.118Z,1.40
2019-01-18T03:08:25.180Z,1.40
2019-01-18T03:10:56.480Z,1.50
2019-01-18T03:13:26.333Z,1.50
2019-01-18T03:15:56.064Z,1.50
2019-01-18T03:18:26.350Z,1.60
2019-01-18T03:20:55.951Z,1.60
2019-01-18T03:23:25.896Z,1.50
2019-01-18T03:25:55.680Z,1.60
2019-01-18T03:28:25.377Z,1.60
2019-01-18T03:30:54.981Z,1.70
2019-01-18T03:33:24.751Z,1.70
2019-01-18T03:35:54.499Z,1.80
2019-01-18T03:38:24.745Z,1.80
2019-01-18T03:40:54.487Z,1.90
2019-01-18T03:43:24.244Z,1.90
2019-01-18T03:45:54.126Z,1.90
2019-01-18T03:48:23.814Z,2.00
2019-01-18T03:50:53.530Z,1.90
2019-01-18T03:53:24.710Z,1.90
2019-01-18T03:55:54.508Z,1.90
2019-01-18T03:58:24.373Z,1.90
2019-01-18T04:00:54.541Z,2.00
2019-01-18T04:03:24.293Z,2.10
2019-01-18T04:05:54.419Z,2.10
2019-01-18T04:08:24.105Z,2.10
2019-01-18T04:10:53.834Z,2.00
2019-01-18T04:13:23.859Z,2.00
2019-01-18T04:15:53.867Z,1.90
2019-01-18T04:18:33.181Z,2.00
2019-01-18T04:21:02.970Z,2.10
2019-01-18T04:23:32.824Z,2.10
2019-01-18T04:26:02.659Z,2.00
2019-01-18T04:28:41.331Z,2.10
2019-01-18T04:31:11.746Z,2.10
2019-01-18T04:33:42.034Z,2.20
2019-01-18T04:36:12.163Z,2.20
2019-01-18T04:39:01.736Z,2.20
2019-01-18T04:41:31.913Z,2.20
2019-01-18T04:44:01.855Z,2.10
2019-01-18T04:46:32.049Z,2.00
2019-01-18T04:49:02.804Z,2.10
2019-01-18T04:51:32.793Z,2.00
2019-01-18T04:54:02.499Z,2.10
2019-01-18T04:56:32.469Z,2.10
2019-01-18T04:59:02.678Z,2.00
2019-01-18T05:01:33.269Z,2.00
2019-01-18T05:04:02.902Z,2.10
2019-01-18T05:06:32.875Z,2.50
2019-01-18T05:09:08.052Z,2.00
2019-01-18T05:11:38.001Z,2.00
2019-01-18T05:14:08.402Z,1.90
2019-01-18T05:16:38.939Z,2.00
2019-01-18T05:19:09.043Z,2.00
2019-01-18T05:21:39.129Z,2.00
2019-01-18T05:24:08.831Z,2.00
2019-01-18T05:26:39.260Z,2.10
2019-01-18T05:29:08.965Z,2.10
2019-01-18T05:31:38.747Z,2.20
2019-01-18T05:34:10.870Z,2.20
2019-01-18T05:36:40.761Z,2.10
2019-01-18T05:39:13.768Z,2.00
2019-01-18T05:41:44.092Z,1.90
2019-01-18T05:44:17.923Z,1.90
2019-01-18T05:46:49.270Z,2.00
2019-01-18T05:49:19.187Z,2.10
2019-01-18T05:51:49.260Z,2.00
2019-01-18T05:54:19.587Z,1.90
2019-01-18T05:56:49.228Z,2.00
2019-01-18T05:59:23.121Z,2.00
2019-01-18T06:01:59.126Z,1.80
2019-01-18T06:04:29.238Z,1.80
2019-01-18T06:07:05.127Z,1.90
2019-01-18T06:09:35.106Z,1.70
2019-01-18T06:12:04.896Z,1.70
2019-01-18T06:14:34.725Z,1.70
2019-01-18T06:17:06.595Z,1.70
2019-01-18T06:19:37.061Z,1.80
2019-01-18T06:22:11.093Z,1.80
2019-01-18T06:24:41.132Z,1.80
2019-01-18T06:27:11.006Z,1.80
2019-01-18T06:29:41.062Z,1.70
2019-01-18T06:32:11.496Z,1.40
2019-01-18T06:34:41.251Z,1.60
2019-01-18T06:37:11.095Z,1.60
2019-01-18T06:39:42.895Z,1.60
2019-01-18T06:43:11.460Z,1.60
2019-01-18T06:45:46.687Z,1.60
2019-01-18T06:48:28.425Z,1.60
2019-01-18T06:50:59.322Z,1.50
2019-01-18T06:53:29.380Z,1.50
2019-01-18T06:56:00.103Z,1.50
2019-01-18T06:58:30.723Z,1.40
2019-01-18T07:01:16.908Z,1.40
2019-01-18T07:03:46.890Z,1.50
2019-01-18T07:06:16.803Z,1.50
2019-01-18T07:08:47.256Z,1.50
2019-01-18T07:11:17.135Z,1.40
2019-01-18T07:13:47.010Z,1.40
2019-01-18T07:16:17.701Z,1.40
2019-01-18T07:18:47.867Z,1.40
2019-01-18T07:21:17.646Z,1.40
2019-01-18T07:23:48.096Z,1.50
2019-01-18T07:26:17.927Z,1.40
2019-01-18T07:28:47.844Z,1.40
2019-01-18T07:31:18.245Z,1.40
2019-01-18T07:33:49.530Z,1.50
2019-01-18T07:36:19.290Z,1.50
2019-01-18T07:38:52.062Z,1.40
2019-01-18T07:41:22.184Z,1.40
2019-01-18T07:43:52.178Z,1.50
2019-01-18T07:46:22.310Z,1.50
2019-01-18T07:48:52.046Z,1.40
2019-01-18T07:51:24.471Z,1.40
2019-01-18T07:53:54.344Z,1.40
2019-01-18T07:56:27.939Z,1.40
2019-01-18T07:59:26.390Z,1.40
2019-01-18T08:02:06.146Z,1.40
2019-01-18T08:04:36.372Z,1.50
2019-01-18T08:07:32.765Z,1.40
2019-01-18T08:10:02.950Z,1.40
2019-01-18T08:12:33.048Z,1.50
2019-01-18T08:15:07.543Z,1.60
2019-01-18T08:17:37.913Z,1.60
2019-01-18T08:20:15.266Z,1.50
2019-01-18T08:22:43.829Z,1.60
2019-01-18T08:25:14.897Z,1.60
2019-01-18T08:27:47.672Z,1.50
2019-01-18T08:30:22.473Z,1.50
2019-01-18T08:32:52.779Z,1.60
2019-01-18T08:35:25.928Z,1.60
2019-01-18T08:37:56.483Z,1.60
2019-01-18T08:40:30.932Z,1.60
2019-01-18T08:43:01.209Z,1.60
2019-01-18T08:45:57.583Z,1.80
2019-01-18T08:48:29.830Z,1.90
2019-01-18T08:51:00.459Z,2.00
2019-01-18T08:53:30.420Z,2.10
2019-01-18T08:56:00.264Z,2.20
2019-01-18T08:58:31.331Z,2.30
2019-01-18T09:01:03.861Z,2.30
2019-01-18T09:03:40.049Z,2.50
2019-01-18T09:06:10.366Z,2.60
2019-01-18T09:08:40.225Z,2.60
2019-01-18T09:11:10.557Z,2.60
2019-01-18T09:13:41.054Z,2.60
2019-01-18T09:16:14.122Z,2.80
2019-01-18T09:18:44.474Z,3.00
2019-01-18T09:21:15.060Z,3.20
2019-01-18T09:23:45.366Z,3.50
2019-01-18T09:26:18.318Z,3.60
2019-01-18T09:28:54.340Z,3.60
2019-01-18T09:31:25.657Z,3.60
2019-01-18T09:33:56.315Z,3.30
2019-01-18T09:36:26.609Z,3.30
2019-01-18T09:38:56.402Z,3.00
2019-01-18T09:41:26.284Z,2.90
2019-01-18T09:43:56.086Z,2.90
2019-01-18T09:46:26.197Z,3.20
2019-01-18T09:48:57.981Z,3.20
2019-01-18T09:51:28.536Z,3.40
2019-01-18T09:53:58.521Z,3.50
2019-01-18T09:56:28.630Z,3.50
2019-01-18T09:58:58.816Z,3.60
2019-01-18T10:01:29.881Z,3.60
2019-01-18T10:04:00.168Z,3.70
2019-01-18T10:06:31.093Z,3.90
2019-01-18T10:09:01.384Z,3.70
2019-01-18T10:11:41.333Z,2.90
2019-01-18T10:14:11.107Z,3.60
2019-01-18T10:16:41.893Z,3.50
2019-01-18T10:19:12.376Z,3.60
2019-01-18T10:21:42.786Z,3.80
2019-01-18T10:24:12.572Z,4.00
2019-01-18T10:26:43.357Z,4.10
2019-01-18T10:29:13.121Z,4.00
2019-01-18T10:31:46.353Z,3.90
2019-01-18T10:34:17.105Z,3.90
2019-01-18T10:36:48.894Z,3.80
2019-01-18T10:39:19.528Z,3.70
2019-01-18T10:41:50.035Z,4.00
2019-01-18T10:44:20.321Z,4.10
2019-01-18T10:46:50.150Z,3.90
2019-01-18T10:49:20.233Z,3.70
2019-01-18T10:51:51.106Z,3.60
2019-01-18T10:54:25.452Z,3.40
2019-01-18T10:56:55.396Z,3.60
2019-01-18T10:59:29.301Z,3.90
2019-01-18T11:02:06.919Z,4.00
2019-01-18T11:04:33.537Z,4.30
2019-01-18T11:07:03.994Z,4.60
2019-01-18T11:09:45.294Z,4.80
2019-01-18T11:12:19.507Z,4.80
2019-01-18T11:14:50.381Z,4.70
2019-01-18T11:17:24.315Z,4.70
2019-01-18T11:19:58.329Z,4.90
2019-01-18T11:22:30.303Z,5.20
2019-01-18T11:25:11.345Z,5.20
2019-01-18T11:27:43.555Z,5.10
2019-01-18T11:30:18.392Z,5.20
2019-01-18T11:32:52.371Z,5.30
2019-01-18T11:35:22.303Z,5.40
2019-01-18T11:37:55.095Z,5.50
2019-01-18T11:40:26.687Z,5.50
2019-01-18T11:42:57.627Z,5.20
2019-01-18T11:45:27.988Z,5.30
2019-01-18T11:48:03.712Z,5.20
2019-01-18T11:50:33.753Z,4.80
2019-01-18T11:53:05.156Z,4.60
2019-01-18T11:55:39.510Z,4.50
2019-01-18T11:58:17.819Z,4.50
2019-01-18T12:00:48.405Z,4.00
2019-01-18T12:03:18.359Z,4.20
2019-01-18T12:05:48.925Z,4.10
2019-01-18T12:08:22.192Z,4.20
2019-01-18T12:10:53.372Z,4.20
2019-01-18T12:13:24.309Z,4.20
2019-01-18T12:15:54.295Z,4.10
2019-01-18T12:18:27.064Z,4.10
2019-01-18T12:20:56.893Z,4.10
2019-01-18T12:23:27.143Z,4.10
2019-01-18T12:25:59.975Z,4.10
2019-01-18T12:28:30.647Z,4.20
2019-01-18T12:31:01.698Z,4.30
2019-01-18T12:33:31.552Z,4.40
2019-01-18T12:36:01.900Z,4.40
2019-01-18T12:38:38.984Z,4.30
2019-01-18T12:41:09.005Z,4.20
2019-01-18T12:43:39.400Z,4.20
2019-01-18T12:46:10.308Z,4.30
2019-01-18T12:48:42.188Z,4.30
2019-01-18T12:51:12.475Z,4.20
2019-01-18T12:53:42.869Z,4.20
2019-01-18T12:56:13.059Z,4.30
2019-01-18T12:58:43.158Z,4.30
2019-01-18T13:01:15.111Z,4.30
2019-01-18T13:03:48.091Z,4.30
2019-01-18T13:06:21.396Z,4.50
2019-01-18T13:09:00.088Z,4.70
2019-01-18T13:11:40.618Z,4.00
2019-01-18T13:14:17.831Z,4.70
2019-01-18T13:16:49.492Z,4.70
2019-01-18T13:19:23.395Z,4.80
2019-01-18T13:21:54.041Z,4.90
2019-01-18T13:24:24.818Z,5.00
2019-01-18T13:26:55.584Z,5.60
2019-01-18T13:29:25.933Z,6.30
2019-01-18T13:32:01.482Z,6.80
2019-01-18T13:34:38.843Z,7.20
2019-01-18T13:37:09.590Z,7.60
2019-01-18T13:39:42.453Z,7.40
2019-01-18T13:42:12.779Z,7.10
2019-01-18T13:44:47.283Z,6.70
2019-01-18T13:47:25.032Z,6.20
2019-01-18T13:50:00.272Z,5.90
2019-01-18T13:52:32.753Z,5.70
2019-01-18T13:55:07.262Z,5.60
2019-01-18T13:57:45.808Z,5.50
2019-01-18T14:00:21.191Z,5.40
2019-01-18T14:03:00.046Z,5.40
2019-01-18T14:05:36.081Z,5.30
2019-01-18T14:08:10.150Z,5.10
2019-01-18T14:10:41.347Z,5.10
2019-01-18T14:13:11.400Z,4.90
2019-01-18T14:15:44.181Z,4.90
2019-01-18T14:18:17.762Z,4.70
2019-01-18T14:20:48.832Z,4.60
2019-01-18T14:23:19.094Z,4.60
2019-01-18T14:25:52.461Z,4.70
2019-01-18T14:28:25.037Z,4.70
2019-01-18T14:30:55.204Z,4.80
2019-01-18T14:33:25.788Z,4.80
2019-01-18T14:35:59.087Z,4.70
2019-01-18T14:38:35.300Z,4.70
2019-01-18T14:41:05.536Z,4.60
2019-01-18T14:43:38.547Z,4.60
2019-01-18T14:46:08.350Z,4.50
2019-01-18T14:48:38.538Z,4.60
2019-01-18T14:51:17.204Z,4.50
2019-01-18T14:53:42.860Z,4.40
2019-01-18T14:56:14.187Z,4.30
2019-01-18T14:58:44.477Z,4.30
2019-01-18T15:01:22.780Z,4.30
2019-01-18T15:03:56.290Z,4.40
2019-01-18T15:06:26.565Z,4.40
2019-01-18T15:08:58.996Z,4.30
2019-01-18T15:11:32.190Z,4.20
2019-01-18T15:14:05.300Z,4.30
2019-01-18T15:16:35.536Z,4.20
2019-01-18T15:19:07.093Z,4.20
2019-01-18T15:21:41.307Z,4.20
2019-01-18T15:24:13.950Z,4.20
2019-01-18T15:26:47.412Z,4.10
2019-01-18T15:29:17.702Z,4.20
2019-01-18T15:31:49.246Z,4.10
2019-01-18T15:34:20.239Z,4.00
2019-01-18T15:36:51.526Z,3.90
2019-01-18T15:39:21.955Z,3.70
2019-01-18T15:41:55.213Z,3.60
2019-01-18T15:44:26.196Z,3.60
2019-01-18T15:46:57.942Z,3.40
2019-01-18T15:49:28.222Z,3.30
2019-01-18T15:52:02.437Z,3.20
2019-01-18T15:54:34.177Z,3.20
2019-01-18T15:57:05.348Z,3.20
2019-01-18T15:59:38.757Z,3.20
2019-01-18T16:02:11.747Z,3.30
2019-01-18T16:04:45.615Z,3.30
2019-01-18T16:07:16.771Z,3.30
2019-01-18T16:09:47.086Z,3.30
2019-01-18T16:12:17.279Z,3.20
2019-01-18T16:14:50.556Z,3.20
2019-01-18T16:17:31.719Z,3.20
2019-01-18T16:20:02.111Z,3.10
2019-01-18T16:22:35.160Z,3.10
2019-01-18T16:25:07.673Z,3.10
2019-01-18T16:27:38.195Z,3.10
2019-01-18T16:30:12.306Z,3.20
2019-01-18T16:32:44.459Z,3.20
2019-01-18T16:35:19.479Z,3.10
2019-01-18T16:38:07.895Z,3.20
2019-01-18T16:40:49.066Z,3.20
2019-01-18T16:43:33.353Z,3.20
2019-01-18T16:46:09.713Z,3.20
2019-01-18T16:48:40.411Z,3.10
2019-01-18T16:51:19.408Z,3.10
2019-01-18T16:53:49.815Z,3.10
2019-01-18T16:56:22.350Z,3.10
2019-01-18T16:58:54.913Z,3.10
2019-01-18T17:01:26.566Z,3.10
2019-01-18T17:04:14.171Z,3.10
2019-01-18T17:06:50.375Z,3.10
2019-01-18T17:09:20.211Z,3.00
2019-01-18T17:11:56.528Z,2.90
2019-01-18T17:14:26.329Z,2.90
2019-01-18T17:16:57.188Z,2.80
2019-01-18T17:19:32.961Z,2.90
2019-01-18T17:22:15.391Z,2.80
2019-01-18T17:24:56.363Z,2.80
2019-01-18T17:27:29.108Z,2.70
2019-01-18T17:29:59.666Z,2.80
2019-01-18T17:32:34.981Z,1.90
2019-01-18T17:35:12.698Z,2.80
2019-01-18T17:37:46.630Z,2.70
2019-01-18T17:40:55.706Z,2.80
2019-01-18T17:44:11.015Z,2.80
2019-01-18T17:47:24.696Z,2.80
2019-01-18T17:50:35.287Z,2.70
2019-01-18T17:53:32.237Z,1.90
2019-01-18T17:57:02.379Z,2.80
2019-01-18T18:00:28.671Z,2.80
2019-01-18T18:03:26.612Z,2.80
2019-01-18T18:06:40.977Z,2.80
2019-01-18T18:09:19.067Z,2.80
2019-01-18T18:12:23.640Z,2.80
2019-01-18T18:15:25.727Z,2.70
2019-01-18T18:18:32.691Z,2.70
2019-01-18T18:21:53.192Z,2.70
2019-01-18T18:25:18.158Z,2.80
2019-01-18T18:28:27.391Z,2.60
2019-01-18T18:31:38.202Z,2.60
2019-01-18T18:34:44.735Z,2.60
2019-01-18T18:37:54.709Z,2.50
2019-01-18T18:41:09.049Z,2.60
2019-01-18T18:44:35.058Z,2.50
2019-01-18T18:48:03.019Z,2.60
2019-01-18T18:51:02.297Z,2.70
2019-01-18T18:54:04.899Z,2.60
2019-01-18T18:57:22.198Z,2.60
2019-01-18T19:00:28.249Z,2.50
2019-01-18T19:04:08.449Z,1.10
2019-01-18T19:07:21.173Z,2.30
2019-01-18T19:10:40.815Z,2.30
2019-01-18T19:14:02.259Z,2.20
2019-01-18T19:17:15.589Z,2.30
2019-01-18T19:20:26.466Z,2.30
2019-01-18T19:23:39.101Z,2.30
2019-01-18T19:26:53.425Z,2.20
2019-01-18T19:30:25.377Z,2.30
2019-01-18T19:33:43.517Z,2.30
2019-01-18T19:36:46.718Z,2.40
2019-01-18T19:39:41.260Z,2.40
2019-01-18T19:42:37.790Z,2.40
2019-01-18T19:46:16.940Z,2.50
2019-01-18T19:49:45.395Z,2.50
2019-01-18T19:52:38.796Z,2.50
2019-01-18T19:55:55.380Z,2.50
2019-01-18T19:59:14.510Z,2.50
2019-01-18T20:02:50.534Z,2.50
2019-01-18T20:06:09.746Z,2.60
2019-01-18T20:08:47.255Z,2.60
2019-01-18T20:11:51.212Z,2.60
2019-01-18T20:14:54.336Z,2.70
2019-01-18T20:18:34.254Z,2.60
2019-01-18T20:21:44.089Z,2.50
2019-01-18T20:25:04.501Z,2.50
2019-01-18T20:28:00.604Z,2.50
2019-01-18T20:31:11.136Z,2.40
2019-01-18T20:34:39.347Z,2.50
2019-01-18T20:38:01.344Z,2.50
2019-01-18T20:41:19.161Z,2.50
2019-01-18T20:44:48.024Z,2.50
2019-01-18T20:47:54.363Z,2.50
2019-01-18T20:51:04.120Z,2.50
2019-01-18T20:54:18.296Z,2.50
2019-01-18T20:57:26.786Z,2.40
2019-01-18T21:00:37.147Z,2.40
2019-01-18T21:03:55.983Z,2.50
2019-01-18T21:07:09.710Z,2.50
2019-01-18T21:10:23.453Z,2.40
2019-01-18T21:13:35.064Z,2.40
2019-01-18T21:16:40.839Z,2.30
2019-01-18T21:19:47.035Z,1.00
2019-01-18T21:23:05.780Z,2.30
2019-01-18T21:26:15.181Z,2.30
2019-01-18T21:29:29.628Z,2.30
2019-01-18T21:33:01.349Z,2.10
2019-01-18T21:36:01.511Z,2.30
2019-01-18T21:39:20.206Z,2.20
2019-01-18T21:42:16.223Z,0.70
2019-01-18T21:45:32.575Z,2.20
2019-01-18T21:48:36.075Z,2.20
2019-01-18T21:52:06.163Z,2.10
2019-01-18T21:55:22.296Z,2.10
2019-01-18T21:58:46.581Z,2.10
2019-01-18T22:01:55.845Z,2.10
2019-01-18T22:05:09.142Z,2.10
2019-01-18T22:08:33.747Z,2.10
2019-01-18T22:11:30.749Z,2.10
2019-01-18T22:14:36.464Z,2.00
2019-01-18T22:18:02.612Z,2.10
2019-01-18T22:21:41.686Z,2.10
2019-01-18T22:24:43.098Z,2.10
2019-01-18T22:31:26.328Z,2.10
2019-01-18T22:34:37.707Z,2.10
2019-01-18T22:37:37.590Z,2.10
2019-01-18T22:40:57.367Z,2.20
2019-01-18T22:44:17.283Z,2.10
2019-01-18T22:47:26.507Z,2.10
2019-01-18T22:50:40.438Z,2.00
2019-01-18T22:54:17.079Z,1.90
2019-01-18T22:57:15.738Z,1.90
2019-01-18T23:00:34.647Z,1.70
2019-01-18T23:03:29.353Z,1.70
2019-01-18T23:06:47.176Z,2.40
2019-01-18T23:09:54.593Z,1.40
2019-01-18T23:13:13.743Z,1.30
2019-01-18T23:16:34.346Z,1.20
2019-01-18T23:19:47.476Z,1.20
2019-01-18T23:23:03.325Z,1.10
2019-01-18T23:25:50.861Z,1.00
2019-01-18T23:29:08.440Z,1.00
2019-01-18T23:32:38.304Z,0.90
2019-01-18T23:35:40.560Z,0.90
2019-01-18T23:39:09.614Z,0.80
2019-01-18T23:42:12.262Z,0.80
2019-01-18T23:45:21.787Z,0.80
2019-01-18T23:48:37.690Z,0.80
2019-01-18T23:51:40.503Z,0.80
2019-01-18T23:54:50.228Z,0.80
2019-01-18T23:57:58.102Z,0.80
